OITK  Khoy  Airport

Khoy, Iran

Add Bookmark
ICAO OITK
IATA KHY
Type Airport
Status Operational
Latitude
38° 25' 39" N
38.427502
Longitude
44° 58' 24" E
44.973598
Local (DST + 5) UTC (GMT + 4)
Aug 2, 2015 08:52 Aug 2, 2015 16:22
Sunrise-Sunset Local UTC
Begin Civil Twilight 06:02 01:32
Sunrise 06:31 02:01
Sunset 08:41 16:11
End Civil Twilight 09:10 16:40
VFR
VFR
MVFR
MVFR
IFR
IFR
LIFR
LIFR
Unknown
Unavailable

Current Weather

METAR Observed VFR
OITK 020600Z 01004KT 9999 FEW035TCU 30/10 Q1015 Sun, Aug 2, 2015 @ 06:00 UTC
(10 Hours, 22 Minutes ago)
Visual Flight Rules
Wind Visibility Clouds Conditions
010° at 4 knots (7 kph) 10 km or more
  • Few at 3,500 ft AGL
  • No significant weather
Temperatures Readings Precipitation
Current Temp
30°C
86°F
Dewpoint
10°C
50°F
Humidity 29%
Altimeter 29.97" Hg
Sea Level Pressure 1,015 mb
Field Elevation
1,107 m
3,632 ft
None Recorded
-
-

CheckWX.com is intended as a tool to help pilots better visualize weather data. It is not intended as a substitute for an official weather briefing obtained from a Flight Service Station. CheckWX.com does not meet the FAA requirements for an official pre-flight weather briefing. Therefore, it's important that pilots still call and obtain an official FSS pre-flight weather briefing.

© 2007-2015 CheckWX.com
16:22:46 UTC